Terminal Aerodrome Forecast
Issued by NWS

Home | Current Version | Previous Version | Text Only | Print | Product List | Glossary On
Versions: 1 2 3 4 5 6 7 8 9 10 11 12 13 14 15 16 17
000
FTUS43 KFGF 292327
TAFTVF
TAF
KTVF 292327Z 3000/3024 35017G22KT P6SM SKC
     FM300100 34014KT P6SM SKC
     FM300600 34008KT P6SM SKC
     FM301500 03009KT P6SM SKC
      AMD LTD TO CLD VIS AND WIND=

USA.gov is the U.S. government's official web portal to all federal, state and local government web resources and services.